createdAt,value
2022-09-03T00:01:44.628Z,2.33
2022-09-03T00:04:57.388Z,2.53
2022-09-03T00:08:06.952Z,2.27
2022-09-03T00:11:18.951Z,2.60
2022-09-03T00:14:26.117Z,2.20
2022-09-03T00:17:33.767Z,2.40
2022-09-03T00:20:42.439Z,2.50
2022-09-03T00:23:48.745Z,2.50
2022-09-03T00:26:56.908Z,2.10
2022-09-03T00:30:04.305Z,2.33
2022-09-03T00:33:12.177Z,2.37
2022-09-03T00:36:20.067Z,2.20
2022-09-03T00:39:25.993Z,2.20
2022-09-03T00:42:45.169Z,3.50
2022-09-03T00:45:57.672Z,2.53
2022-09-03T00:49:18.620Z,2.30
2022-09-03T00:52:35.751Z,2.43
2022-09-03T00:55:47.510Z,2.50
2022-09-03T00:59:08.838Z,2.50
2022-09-03T01:02:19.454Z,2.20
2022-09-03T01:05:35.909Z,2.40
2022-09-03T01:09:00.941Z,2.27
2022-09-03T01:12:14.643Z,2.23
2022-09-03T01:15:28.156Z,2.40
2022-09-03T01:18:37.750Z,2.40
2022-09-03T01:22:03.345Z,2.50
2022-09-03T01:25:17.567Z,2.20
2022-09-03T01:28:34.926Z,2.33
2022-09-03T01:31:47.046Z,2.10
2022-09-03T01:34:56.845Z,2.73
2022-09-03T01:38:12.641Z,2.70
2022-09-03T01:41:44.301Z,2.53
2022-09-03T01:45:12.895Z,2.20
2022-09-03T01:48:33.207Z,2.43
2022-09-03T01:51:36.289Z,2.20
2022-09-03T01:55:00.533Z,2.10
2022-09-03T01:58:10.893Z,2.30
2022-09-03T02:01:23.056Z,2.17
2022-09-03T02:04:28.646Z,2.50
2022-09-03T02:07:35.582Z,2.30
2022-09-03T02:10:42.996Z,2.57
2022-09-03T02:13:51.982Z,2.30
2022-09-03T02:16:59.167Z,2.20
2022-09-03T02:20:07.449Z,2.23
2022-09-03T02:23:10.539Z,2.70
2022-09-03T02:26:17.538Z,2.30
2022-09-03T02:29:22.500Z,2.50
2022-09-03T02:32:26.909Z,2.40
2022-09-03T02:35:29.938Z,2.27
2022-09-03T02:38:32.864Z,2.30
2022-09-03T02:41:36.204Z,2.53
2022-09-03T02:44:45.909Z,2.50
2022-09-03T02:47:57.427Z,2.70
2022-09-03T02:51:01.710Z,2.87
2022-09-03T02:54:20.761Z,2.60
2022-09-03T02:57:27.868Z,2.60
2022-09-03T03:00:30.926Z,2.70
2022-09-03T03:03:35.146Z,2.20
2022-09-03T03:06:38.087Z,2.50
2022-09-03T03:09:40.944Z,2.90
2022-09-03T03:12:43.831Z,2.70
2022-09-03T03:15:47.861Z,2.67
2022-09-03T03:18:52.759Z,2.67
2022-09-03T03:21:59.325Z,2.40
2022-09-03T03:25:02.200Z,2.53
2022-09-03T03:28:06.154Z,2.73
2022-09-03T03:31:09.971Z,2.70
2022-09-03T03:34:14.196Z,2.70
2022-09-03T03:37:17.021Z,2.70
2022-09-03T03:40:20.300Z,2.80
2022-09-03T03:43:23.127Z,2.70
2022-09-03T03:46:29.781Z,2.97
2022-09-03T03:49:46.477Z,2.70
2022-09-03T03:52:49.403Z,3.10
2022-09-03T03:55:57.085Z,2.90
2022-09-03T03:59:00.837Z,2.80
2022-09-03T04:02:03.772Z,2.60
2022-09-03T04:05:08.945Z,2.70
2022-09-03T04:08:13.184Z,2.70
2022-09-03T04:11:18.203Z,3.33
2022-09-03T04:14:22.190Z,2.87
2022-09-03T04:17:26.210Z,3.10
2022-09-03T04:20:30.914Z,2.80
2022-09-03T04:23:35.710Z,3.13
2022-09-03T04:26:38.944Z,3.27
2022-09-03T04:29:41.789Z,2.93
2022-09-03T04:32:55.928Z,2.97
2022-09-03T04:36:18.436Z,3.23
2022-09-03T04:39:21.326Z,3.40
2022-09-03T04:42:24.259Z,3.33
2022-09-03T04:45:28.544Z,3.40
2022-09-03T04:48:33.030Z,2.70
2022-09-03T04:51:38.831Z,3.10
2022-09-03T04:54:42.200Z,2.90
2022-09-03T04:57:45.257Z,3.17
2022-09-03T05:00:48.180Z,2.90
2022-09-03T05:03:52.284Z,3.47
2022-09-03T05:06:56.628Z,3.33
2022-09-03T05:09:59.433Z,3.00
2022-09-03T05:13:03.925Z,2.83
2022-09-03T05:16:08.965Z,3.10
2022-09-03T05:19:12.576Z,3.40
2022-09-03T05:22:21.230Z,2.80
2022-09-03T05:25:24.682Z,3.20
2022-09-03T05:28:28.752Z,3.50
2022-09-03T05:31:32.950Z,3.30
2022-09-03T05:34:35.911Z,3.30
2022-09-03T05:37:40.137Z,3.40
2022-09-03T05:40:43.466Z,3.17
2022-09-03T05:43:46.325Z,3.30
2022-09-03T05:46:49.197Z,3.00
2022-09-03T05:49:58.503Z,3.73
2022-09-03T05:53:02.794Z,3.13
2022-09-03T05:56:10.808Z,3.00
2022-09-03T05:59:13.820Z,3.23
2022-09-03T06:02:18.043Z,3.10
2022-09-03T06:05:22.937Z,3.63
2022-09-03T06:08:27.273Z,3.27
2022-09-03T06:11:31.847Z,3.40
2022-09-03T06:14:35.557Z,3.17
2022-09-03T06:17:39.233Z,3.27
2022-09-03T06:20:42.117Z,2.70
2022-09-03T06:23:50.676Z,2.93
2022-09-03T06:26:53.595Z,2.97
2022-09-03T06:29:59.631Z,3.27
2022-09-03T06:33:02.501Z,3.00
2022-09-03T06:36:08.927Z,3.43
2022-09-03T06:39:13.476Z,3.07
2022-09-03T06:42:16.297Z,3.30
2022-09-03T06:45:19.187Z,3.07
2022-09-03T06:48:22.249Z,3.20
2022-09-03T06:51:27.135Z,2.90
2022-09-03T06:54:32.848Z,2.73
2022-09-03T06:57:35.680Z,3.03
2022-09-03T07:00:38.663Z,2.90
2022-09-03T07:03:43.191Z,2.60
2022-09-03T07:06:46.459Z,2.67
2022-09-03T07:09:50.665Z,2.63
2022-09-03T07:12:56.613Z,2.60
2022-09-03T07:16:01.505Z,2.50
2022-09-03T07:19:04.740Z,3.10
2022-09-03T07:22:07.871Z,2.70
2022-09-03T07:25:12.263Z,2.93
2022-09-03T07:28:16.954Z,2.60
2022-09-03T07:31:26.036Z,2.60
2022-09-03T07:34:30.254Z,2.97
2022-09-03T07:37:33.660Z,2.50
2022-09-03T07:40:39.362Z,2.63
2022-09-03T07:43:47.002Z,2.90
2022-09-03T07:46:51.797Z,2.90
2022-09-03T07:49:54.963Z,2.83
2022-09-03T07:53:02.213Z,2.80
2022-09-03T07:56:08.784Z,2.63
2022-09-03T07:59:12.435Z,2.50
2022-09-03T08:02:15.382Z,2.60
2022-09-03T08:05:21.351Z,2.90
2022-09-03T08:08:25.576Z,2.70
2022-09-03T08:11:38.420Z,2.40
2022-09-03T08:14:41.337Z,2.93
2022-09-03T08:17:47.248Z,2.83
2022-09-03T08:20:50.085Z,2.50
2022-09-03T08:23:54.957Z,2.50
2022-09-03T08:27:03.980Z,2.57
2022-09-03T08:30:11.518Z,2.63
2022-09-03T08:33:14.350Z,2.90
2022-09-03T08:36:19.184Z,2.33
2022-09-03T08:39:22.145Z,2.53
2022-09-03T08:42:54.029Z,2.80
2022-09-03T08:46:00.214Z,2.60
2022-09-03T08:49:03.854Z,2.43
2022-09-03T08:52:17.831Z,2.60
2022-09-03T08:55:27.905Z,2.57
2022-09-03T08:58:38.613Z,2.57
2022-09-03T09:01:50.524Z,2.50
2022-09-03T09:05:06.267Z,2.50
2022-09-03T09:08:19.881Z,2.13
2022-09-03T09:11:31.817Z,2.60
2022-09-03T09:14:42.520Z,2.50
2022-09-03T09:18:02.129Z,2.30
2022-09-03T09:21:14.904Z,2.40
2022-09-03T09:24:26.315Z,2.30
2022-09-03T09:27:30.072Z,2.17
2022-09-03T09:30:34.369Z,2.23
2022-09-03T09:33:37.395Z,2.00
2022-09-03T09:36:47.005Z,2.40
2022-09-03T09:40:02.867Z,2.10
2022-09-03T09:43:07.512Z,2.33
2022-09-03T09:46:14.991Z,2.40
2022-09-03T09:49:31.977Z,2.33
2022-09-03T09:52:34.866Z,2.60
2022-09-03T09:55:39.063Z,2.30
2022-09-03T09:58:41.909Z,2.33
2022-09-03T10:01:46.868Z,2.17
2022-09-03T10:04:49.801Z,2.20
2022-09-03T10:07:58.248Z,2.10
2022-09-03T10:11:01.231Z,2.00
2022-09-03T10:14:07.355Z,2.03
2022-09-03T10:17:18.837Z,2.47
2022-09-03T10:20:33.691Z,1.97
2022-09-03T10:23:50.206Z,1.80
2022-09-03T10:26:53.096Z,2.07
2022-09-03T10:29:56.028Z,2.17
2022-09-03T10:33:08.219Z,2.00
2022-09-03T10:36:18.761Z,2.20
2022-09-03T10:39:26.923Z,2.10
2022-09-03T10:42:45.643Z,1.93
2022-09-03T10:46:03.134Z,1.80
2022-09-03T10:49:34.643Z,2.10
2022-09-03T10:52:49.971Z,1.90
2022-09-03T10:56:01.911Z,2.40
2022-09-03T10:59:29.363Z,2.30
2022-09-03T11:02:59.387Z,2.07
2022-09-03T11:06:09.847Z,2.70
2022-09-03T11:09:18.934Z,2.50
2022-09-03T11:12:28.060Z,2.60
2022-09-03T11:15:35.551Z,2.40
2022-09-03T11:18:45.434Z,2.10
2022-09-03T11:21:51.250Z,2.00
2022-09-03T11:24:59.472Z,1.70
2022-09-03T11:28:19.160Z,1.93
2022-09-03T11:31:31.500Z,1.73
2022-09-03T11:34:48.178Z,1.90
2022-09-03T11:37:55.809Z,2.00
2022-09-03T11:41:02.853Z,1.80
2022-09-03T11:44:19.510Z,2.20
2022-09-03T11:47:25.179Z,1.97
2022-09-03T11:50:29.467Z,2.17
2022-09-03T11:53:37.776Z,2.10
2022-09-03T11:56:43.262Z,2.30
2022-09-03T11:59:46.431Z,2.13
2022-09-03T12:02:54.275Z,2.10
2022-09-03T12:06:19.928Z,1.97
2022-09-03T12:09:53.971Z,2.20
2022-09-03T12:13:13.436Z,2.07
2022-09-03T12:16:42.501Z,2.27
2022-09-03T12:19:51.886Z,2.00
2022-09-03T12:22:55.554Z,1.83
2022-09-03T12:26:04.045Z,1.80
2022-09-03T12:29:09.453Z,1.80
2022-09-03T12:32:16.104Z,1.93
2022-09-03T12:39:10.037Z,2.47
2022-09-03T12:42:14.376Z,1.90
2022-09-03T12:45:21.386Z,1.80
2022-09-03T12:48:26.164Z,1.97
2022-09-03T12:51:53.444Z,2.07
2022-09-03T12:55:05.244Z,1.93
2022-09-03T12:58:14.731Z,2.00
2022-09-03T13:01:22.345Z,1.90
2022-09-03T13:04:28.967Z,1.80
2022-09-03T13:07:37.381Z,2.00
2022-09-03T13:10:44.174Z,2.20
2022-09-03T13:13:56.402Z,1.83
2022-09-03T13:17:24.349Z,1.90
2022-09-03T13:20:39.073Z,1.93
2022-09-03T13:23:56.631Z,2.13
2022-09-03T13:27:12.195Z,2.23
2022-09-03T13:30:20.970Z,2.10
2022-09-03T13:33:29.554Z,2.00
2022-09-03T13:36:39.645Z,2.00
2022-09-03T13:39:52.541Z,2.00
2022-09-03T13:43:02.712Z,2.10
2022-09-03T13:46:12.075Z,2.20
2022-09-03T13:49:46.532Z,2.20
2022-09-03T13:52:56.862Z,1.93
2022-09-03T13:56:06.414Z,2.00
2022-09-03T13:59:16.290Z,1.83
2022-09-03T14:02:28.140Z,1.90
2022-09-03T14:06:02.235Z,2.20
2022-09-03T14:09:15.317Z,2.13
2022-09-03T14:12:26.163Z,2.27
2022-09-03T14:15:33.013Z,2.10
2022-09-03T14:19:00.592Z,2.20
2022-09-03T14:22:12.333Z,2.20
2022-09-03T14:25:18.161Z,2.10
2022-09-03T14:28:30.521Z,2.07
2022-09-03T14:32:09.041Z,2.30
2022-09-03T14:35:46.174Z,2.30
2022-09-03T14:39:04.220Z,1.93
2022-09-03T14:42:38.041Z,2.00
2022-09-03T14:46:11.018Z,2.07
2022-09-03T14:49:45.113Z,2.20
2022-09-03T14:53:24.408Z,2.67
2022-09-03T14:56:40.577Z,1.70
2022-09-03T15:00:05.273Z,2.17
2022-09-03T15:03:53.306Z,2.07
2022-09-03T15:07:16.724Z,2.20
2022-09-03T15:10:28.985Z,2.30
2022-09-03T15:13:43.364Z,2.10
2022-09-03T15:16:58.186Z,2.10
2022-09-03T15:20:20.048Z,2.17
2022-09-03T15:23:44.968Z,2.50
2022-09-03T15:27:05.288Z,2.40
2022-09-03T15:30:13.093Z,2.33
2022-09-03T15:33:30.288Z,2.20
2022-09-03T15:36:40.945Z,2.50
2022-09-03T15:39:47.095Z,2.33
2022-09-03T15:42:56.445Z,1.90
2022-09-03T15:46:10.731Z,2.20
2022-09-03T15:49:24.682Z,2.07
2022-09-03T15:52:33.538Z,2.20
2022-09-03T15:55:38.541Z,2.30
2022-09-03T15:58:49.171Z,2.23
2022-09-03T16:01:58.817Z,2.47
2022-09-03T16:05:16.199Z,2.30
2022-09-03T16:08:25.464Z,2.30
2022-09-03T16:11:37.224Z,2.20
2022-09-03T16:14:44.905Z,2.70
2022-09-03T16:17:59.395Z,2.20
2022-09-03T16:21:06.178Z,2.60
2022-09-03T16:24:18.389Z,2.70
2022-09-03T16:27:24.859Z,2.20
2022-09-03T16:30:38.468Z,2.70
2022-09-03T16:33:51.486Z,2.43
2022-09-03T16:37:04.569Z,2.90
2022-09-03T16:40:16.501Z,2.30
2022-09-03T16:43:40.753Z,2.70
2022-09-03T16:46:54.268Z,3.07
2022-09-03T16:50:14.472Z,2.80
2022-09-03T16:53:28.808Z,2.60
2022-09-03T16:56:45.186Z,2.83
2022-09-03T17:00:10.776Z,3.17
2022-09-03T17:03:26.486Z,2.87
2022-09-03T17:06:47.307Z,2.90
2022-09-03T17:10:02.870Z,2.90
2022-09-03T17:13:26.062Z,2.60
2022-09-03T17:16:43.757Z,3.33
2022-09-03T17:20:07.255Z,2.73
2022-09-03T17:23:28.809Z,2.90
2022-09-03T17:26:38.433Z,2.57
2022-09-03T17:29:56.299Z,3.43
2022-09-03T17:33:32.481Z,3.00
2022-09-03T17:36:39.455Z,3.40
2022-09-03T17:40:08.905Z,2.90
2022-09-03T17:43:23.772Z,2.90
2022-09-03T17:46:37.552Z,3.20
2022-09-03T17:49:47.905Z,3.40
2022-09-03T17:52:55.629Z,3.33
2022-09-03T17:56:04.031Z,3.43
2022-09-03T17:59:13.262Z,3.40
2022-09-03T18:02:38.692Z,3.17
2022-09-03T18:05:52.303Z,3.43
2022-09-03T18:09:02.648Z,2.77
2022-09-03T18:12:13.971Z,3.00
2022-09-03T18:15:27.577Z,3.70
2022-09-03T18:18:32.379Z,3.70
2022-09-03T18:22:04.418Z,3.30
2022-09-03T18:25:26.834Z,3.10
2022-09-03T18:28:57.477Z,3.20
2022-09-03T18:32:19.337Z,3.80
2022-09-03T18:35:48.543Z,3.17
2022-09-03T18:39:09.475Z,3.47
2022-09-03T18:42:37.789Z,3.33
2022-09-03T18:46:50.862Z,3.33
2022-09-03T18:49:53.138Z,3.60
2022-09-03T18:53:18.031Z,3.30
2022-09-03T18:56:50.261Z,3.20
2022-09-03T19:00:28.818Z,3.47
2022-09-03T19:04:05.217Z,3.27
2022-09-03T19:07:30.031Z,3.23
2022-09-03T19:11:04.917Z,3.50
2022-09-03T19:14:36.303Z,3.00
2022-09-03T19:18:24.094Z,3.70
2022-09-03T19:21:53.034Z,3.50
2022-09-03T19:25:25.290Z,3.43
2022-09-03T19:28:48.836Z,3.57
2022-09-03T19:32:16.021Z,3.93
2022-09-03T19:35:56.875Z,3.97
2022-09-03T19:39:32.805Z,3.73
2022-09-03T19:43:07.843Z,4.20
2022-09-03T19:46:36.546Z,3.90
2022-09-03T19:50:14.529Z,4.47
2022-09-03T19:53:37.969Z,4.10
2022-09-03T19:57:00.927Z,3.67
2022-09-03T20:00:33.011Z,3.70
2022-09-03T20:03:55.595Z,4.00
2022-09-03T20:07:19.105Z,4.30
2022-09-03T20:10:25.749Z,4.17
2022-09-03T20:13:49.937Z,3.60
2022-09-03T20:17:03.295Z,4.07
2022-09-03T20:20:16.387Z,3.87
2022-09-03T20:23:28.608Z,3.87
2022-09-03T20:26:45.709Z,3.87
2022-09-03T20:30:00.832Z,3.63
2022-09-03T20:33:27.650Z,3.73
2022-09-03T20:36:39.762Z,3.97
2022-09-03T20:40:17.465Z,3.67
2022-09-03T20:43:51.240Z,3.80
2022-09-03T20:47:10.119Z,3.40
2022-09-03T20:50:25.632Z,3.73
2022-09-03T20:53:50.325Z,3.17
2022-09-03T20:57:16.346Z,3.40
2022-09-03T21:00:35.291Z,3.90
2022-09-03T21:03:52.434Z,4.20
2022-09-03T21:07:01.020Z,3.87
2022-09-03T21:10:09.313Z,3.93
2022-09-03T21:13:17.157Z,3.63
2022-09-03T21:16:32.590Z,3.50
2022-09-03T21:19:47.506Z,3.50
2022-09-03T21:23:01.900Z,3.87
2022-09-03T21:26:16.111Z,3.40
2022-09-03T21:29:25.524Z,3.23
2022-09-03T21:32:36.753Z,3.70
2022-09-03T21:35:46.693Z,3.73
2022-09-03T21:38:59.651Z,3.20
2022-09-03T21:42:08.610Z,3.33
2022-09-03T21:45:18.079Z,3.33
2022-09-03T21:48:35.578Z,3.47
2022-09-03T21:51:45.907Z,3.20
2022-09-03T21:54:58.725Z,3.00
2022-09-03T21:58:18.629Z,3.40
2022-09-03T22:01:29.903Z,3.20
2022-09-03T22:04:32.811Z,3.27
2022-09-03T22:08:01.297Z,3.63
2022-09-03T22:11:13.623Z,3.70
2022-09-03T22:14:19.477Z,3.37
2022-09-03T22:17:35.092Z,3.33
2022-09-03T22:20:38.640Z,3.40
2022-09-03T22:23:55.562Z,3.17
2022-09-03T22:27:04.740Z,3.60
2022-09-03T22:30:11.276Z,3.47
2022-09-03T22:33:22.619Z,3.20
2022-09-03T22:36:29.348Z,3.67
2022-09-03T22:39:37.425Z,3.30
2022-09-03T22:42:54.380Z,3.40
2022-09-03T22:46:12.732Z,3.10
2022-09-03T22:49:27.606Z,3.47
2022-09-03T22:52:38.682Z,3.30
2022-09-03T22:55:55.649Z,3.30
2022-09-03T22:59:03.944Z,3.00
2022-09-03T23:02:12.230Z,3.23
2022-09-03T23:05:28.925Z,2.83
2022-09-03T23:08:39.353Z,2.63
2022-09-03T23:11:51.766Z,2.90
2022-09-03T23:15:01.293Z,2.80
2022-09-03T23:18:09.035Z,2.70
2022-09-03T23:21:23.097Z,2.90
2022-09-03T23:24:31.946Z,2.60
2022-09-03T23:27:40.646Z,2.97
2022-09-03T23:30:43.666Z,3.03
2022-09-03T23:33:50.108Z,2.80
2022-09-03T23:37:33.947Z,2.87
2022-09-03T23:40:49.647Z,2.47
2022-09-03T23:44:06.588Z,2.87
2022-09-03T23:47:19.853Z,2.80
2022-09-03T23:50:31.793Z,3.10
2022-09-03T23:53:47.958Z,2.87
2022-09-03T23:57:11.654Z,2.70
